Strona główna
METAR-TAF:

METAR-TAF

Lotnisko :

Penn Yan Airport

Penn Yan, Nowy Jork, Stany Zjednoczone

Szerokość geograficzna: 42-38-35N, Długość geograficzna: 077-02-58W, wysokość: 275 m

Aktualna obserwacja pogody

Raport powstał 9 minut temu, godzina 17:53 UTC
Cisza
Temperatura 23°C
Wilgotność 65%
Ciśnienie 1011 hPa
Widzialność: 16.1 km
Mało chmury na wysokości 5500 ft
Rozproszone chmury na wysokości 9000 ft
Zachmurzenie całkowite na wysokości 11000 ft
słaby deszcz

METAR: KPEO 241753Z AUTO 00000KT 10SM -RA FEW055 SCT090 OVC110 23/16 A2986 RMK AO2 RAB35 SLP107 P0000 60000 T02280161 10239 20167 58006

czas: 14:02 (18:02 UTC)


TAF: brakujący

Obserwacja i prognoza pogody dla ponad 4000 lotnisk (raport METAR i TAF).

Dostępne stacje oznaczono żółtymi i czerwonymi punktami na mapie.

Najedź kursorem aby zobaczyć nazwę stacji.

Kliknij aby zobaczyć obserwacje i prognozy pogody.

Aby zmienić mapę: kliknij na zielony przycisk z czarnym krzyżykiem, aby powiększyć; na zielony przycisk z myślnikiem, aby pomniejszyć; na zielone strzałki, aby przejść do map sąsiednich.


METAR-TAF: